^^
Grace C. Lehan Memorial Weather Station Historical Data
Daily Summary for September 26, 2022 Units:  Both    English   Metric
Daily Weekly Monthly Yearly
  High: Low: Average:
Temperature: 73.7 °F /  23.2 °C 57.8 °F /  14.3 °C 65.7 °F /  18.7 °C
Dew Point: 63.8 °F /  17.7 °C 56.2 °F /  13.4 °C 59.8 °F /  15.4 °C
Humidity: 96% 58% 83%
Wind Speed: 2.3mph /  3.7km/h - 0.2mph /  0.3km/h
Wind Gust: 12mph /  19.3km/h - -
Wind- - SW
Pressure: 29.74 in /  1007 hPa 29.52 in /  999.5 hPa -
Precipitation: 0.00 in /  0 mm    
 
 
Tabular Data for September 26, 2022
Time Temperature Dew Point Pressure Wind Wind Speed Wind Gust Humidity Rainfall Rate (Hourly) solar
00:04 63 °F /  17.2 °C 60.3 °F /  15.7 °C 29.56in /  1000.9hPa Calm     91% 0.09in /  2.29mm 0 W/m2
00:09 63 °F /  17.2 °C 60.4 °F /  15.8 °C 29.56in /  1000.9hPa Calm     91.4% 0.09in /  2.29mm 0 W/m2
00:14 62.9 °F /  17.2 °C 60.5 °F /  15.8 °C 29.57in /  1001.2hPa Calm     92% 0.10in /  2.54mm 0 W/m2
00:19 62.8 °F /  17.1 °C 60.4 °F /  15.8 °C 29.56in /  1000.9hPa Calm     92% 0.10in /  2.54mm 0 W/m2
00:24 62.7 °F /  17.1 °C 60.3 °F /  15.7 °C 29.56in /  1000.9hPa Calm     92% 0.10in /  2.54mm 0 W/m2
00:29 62.7 °F /  17.1 °C 60.5 °F /  15.8 °C 29.56in /  1000.9hPa Calm     92.5% 0.11in /  2.79mm 0 W/m2
00:34 62.6 °F /  17 °C 60.6 °F /  15.9 °C 29.55in /  1000.6hPa Calm     93% 0.11in /  2.79mm 0 W/m2
00:39 62.6 °F /  17 °C 60.6 °F /  15.9 °C 29.56in /  1000.9hPa Calm     93% 0.12in /  3.05mm 0 W/m2
00:44 62.6 °F /  17 °C 60.5 °F /  15.8 °C 29.56in /  1000.9hPa Calm     93% 0.12in /  3.05mm 0 W/m2
00:49 62.5 °F /  16.9 °C 60.5 °F /  15.8 °C 29.56in /  1000.9hPa Calm     93% 0.12in /  3.05mm 0 W/m2
00:54 62.5 °F /  16.9 °C 60.5 °F /  15.8 °C 29.56in /  1000.9hPa Calm     93% 0.12in /  3.05mm 0 W/m2
00:59 62.5 °F /  16.9 °C 60.6 °F /  15.9 °C 29.56in /  1000.9hPa Calm     93.4% 0.12in /  3.05mm 0 W/m2
01:04 62.5 °F /  16.9 °C 60.8 °F /  16 °C 29.56in /  1000.9hPa Calm     94% 0.12in /  3.05mm 0 W/m2
01:09 62.4 °F /  16.9 °C 60.7 °F /  15.9 °C 29.56in /  1000.9hPa Calm     94% 0.01in /  0.25mm 0 W/m2
01:14 62.4 °F /  16.9 °C 60.7 °F /  15.9 °C 29.56in /  1000.9hPa Calm     94% 0.01in /  0.25mm 0 W/m2
01:19 62.3 °F /  16.8 °C 60.6 °F /  15.9 °C 29.54in /  1000.2hPa Calm     94% 0.01in /  0.25mm 0 W/m2
01:24 62.3 °F /  16.8 °C 60.5 °F /  15.8 °C 29.54in /  1000.2hPa Calm     94% 0.01in /  0.25mm 0 W/m2
01:29 62.2 °F /  16.8 °C 60.5 °F /  15.8 °C 29.54in /  1000.2hPa Calm     94% 0.01in /  0.25mm 0 W/m2
01:34 62.1 °F /  16.7 °C 60.4 °F /  15.8 °C 29.53in /  999.9hPa Calm     94% 0.01in /  0.25mm 0 W/m2
01:39 62.1 °F /  16.7 °C 60.4 °F /  15.8 °C 29.53in /  999.9hPa Calm     94% 0.01in /  0.25mm 0 W/m2
01:44 62.1 °F /  16.7 °C 60.3 °F /  15.7 °C 29.53in /  999.9hPa Calm     94% 0.01in /  0.25mm 0 W/m2
01:49 62 °F /  16.7 °C 60.3 °F /  15.7 °C 29.53in /  999.9hPa Calm     94% 0.01in /  0.25mm 0 W/m2
01:54 62 °F /  16.7 °C 60.2 °F /  15.7 °C 29.52in /  999.5hPa Calm     94% 0.01in /  0.25mm 0 W/m2
01:59 61.9 °F /  16.6 °C 60.2 °F /  15.7 °C 29.52in /  999.5hPa Calm     94% 0.01in /  0.25mm 0 W/m2
02:04 61.9 °F /  16.6 °C 60.2 °F /  15.7 °C 29.52in /  999.5hPa Calm     94% 0.01in /  0.25mm 0 W/m2
02:09 61.8 °F /  16.6 °C 60.1 °F /  15.6 °C 29.53in /  999.9hPa Calm     94% 0.00in /  0mm 0 W/m2
02:14 61.8 °F /  16.6 °C 60 °F /  15.6 °C 29.53in /  999.9hPa Calm     94% 0.00in /  0mm 0 W/m2
02:19 61.7 °F /  16.5 °C 59.9 °F /  15.5 °C 29.53in /  999.9hPa Calm     94% 0.00in /  0mm 0 W/m2
02:24 61.6 °F /  16.4 °C 60.2 °F /  15.7 °C 29.54in /  1000.2hPa Calm     95% 0.00in /  0mm 0 W/m2
02:29 61.6 °F /  16.4 °C 60.1 °F /  15.6 °C 29.54in /  1000.2hPa Calm     95% 0.00in /  0mm 0 W/m2
02:34 61.5 °F /  16.4 °C 60.1 °F /  15.6 °C 29.54in /  1000.2hPa Calm     95% 0.00in /  0mm 0 W/m2
02:39 61.5 °F /  16.4 °C 59.9 °F /  15.5 °C 29.54in /  1000.2hPa Calm     94.7% 0.00in /  0mm 0 W/m2
02:44 61.4 °F /  16.3 °C 59.7 °F /  15.4 °C 29.54in /  1000.2hPa Calm     94% 0.00in /  0mm 0 W/m2
02:49 61.3 °F /  16.3 °C 59.6 °F /  15.3 °C 29.54in /  1000.2hPa Calm     94% 0.00in /  0mm 0 W/m2
02:54 61.2 °F /  16.2 °C 59.4 °F /  15.2 °C 29.54in /  1000.2hPa Calm     94% 0.00in /  0mm 0 W/m2
02:59 61.1 °F /  16.2 °C 59.5 °F /  15.3 °C 29.54in /  1000.2hPa Calm     94.6% 0.00in /  0mm 0 W/m2
03:04 60.9 °F /  16.1 °C 59.5 °F /  15.3 °C 29.55in /  1000.6hPa Calm     95% 0.00in /  0mm 0 W/m2
03:09 60.9 °F /  16.1 °C 59.4 °F /  15.2 °C 29.54in /  1000.2hPa Calm     95% 0.00in /  0mm 0 W/m2
03:14 60.9 °F /  16.1 °C 59.4 °F /  15.2 °C 29.55in /  1000.6hPa SSW 0.1mph /  0.2km/h 3mph /  4.8km/h 95% 0.00in /  0mm 0 W/m2
03:19 60.9 °F /  16.1 °C 59.5 °F /  15.3 °C 29.55in /  1000.6hPa Calm   3mph /  4.8km/h 95% 0.00in /  0mm 0 W/m2
03:24 61 °F /  16.1 °C 59.5 °F /  15.3 °C 29.55in /  1000.6hPa Calm   3mph /  4.8km/h 95% 0.00in /  0mm 0 W/m2
03:29 61 °F /  16.1 °C 59.5 °F /  15.3 °C 29.55in /  1000.6hPa Calm   3mph /  4.8km/h 95% 0.00in /  0mm 0 W/m2
03:34 61 °F /  16.1 °C 59.5 °F /  15.3 °C 29.55in /  1000.6hPa Calm   3mph /  4.8km/h 95% 0.00in /  0mm 0 W/m2
03:39 60.9 °F /  16.1 °C 59.5 °F /  15.3 °C 29.55in /  1000.6hPa Calm     95% 0.00in /  0mm 0 W/m2
03:44 60.9 °F /  16.1 °C 59.4 °F /  15.2 °C 29.55in /  1000.6hPa Calm     95% 0.00in /  0mm 0 W/m2
03:49 60.8 °F /  16 °C 59.4 °F /  15.2 °C 29.55in /  1000.6hPa Calm     95% 0.00in /  0mm 0 W/m2
03:54 60.8 °F /  16 °C 59.4 °F /  15.2 °C 29.54in /  1000.2hPa Calm     95% 0.00in /  0mm 0 W/m2
03:59 60.7 °F /  15.9 °C 59.3 °F /  15.2 °C 29.55in /  1000.6hPa Calm     95% 0.00in /  0mm 0 W/m2
04:09 60.4 °F /  15.8 °C 59 °F /  15 °C 29.55in /  1000.6hPa Calm     95% 0.00in /  0mm 0 W/m2
04:14 60.3 °F /  15.7 °C 58.8 °F /  14.9 °C 29.55in /  1000.6hPa Calm     95% 0.00in /  0mm 0 W/m2
04:19 60.1 °F /  15.6 °C 58.7 °F /  14.8 °C 29.55in /  1000.6hPa Calm     95% 0.00in /  0mm 0 W/m2
04:24 60 °F /  15.6 °C 58.6 °F /  14.8 °C 29.55in /  1000.6hPa Calm     95% 0.00in /  0mm 0 W/m2
04:29 60 °F /  15.6 °C 58.6 °F /  14.8 °C 29.55in /  1000.6hPa Calm     95% 0.00in /  0mm 0 W/m2
04:34 60 °F /  15.6 °C 58.6 °F /  14.8 °C 29.55in /  1000.6hPa Calm     95% 0.00in /  0mm 0 W/m2
04:39 60 °F /  15.6 °C 58.6 °F /  14.8 °C 29.55in /  1000.6hPa Calm     95% 0.00in /  0mm 0 W/m2
04:44 60 °F /  15.6 °C 58.6 °F /  14.8 °C 29.55in /  1000.6hPa Calm     95% 0.00in /  0mm 0 W/m2
04:48 60 °F /  15.6 °C 58.6 °F /  14.8 °C 29.55in /  1000.6hPa Calm     95% 0.00in /  0mm 0 W/m2
05:00 60 °F /  15.6 °C 58.6 °F /  14.8 °C 29.55in /  1000.6hPa Calm     95% 0.00in /  0mm 0 W/m2
05:30 59.9 °F /  15.5 °C 58.8 °F /  14.9 °C 29.56in /  1000.9hPa Calm   2mph /  3.2km/h 96% 0.00in /  0mm 0 W/m2
06:00 59 °F /  15 °C 57.6 °F /  14.2 °C 29.57in /  1001.2hPa Calm     95% 0.00in /  0mm 0 W/m2
06:30 58.4 °F /  14.7 °C 57 °F /  13.9 °C 29.59in /  1001.9hPa Calm     95% 0.00in /  0mm 0 W/m2
07:00 57.8 °F /  14.3 °C 56.7 °F /  13.7 °C 29.61in /  1002.6hPa Calm     96% 0.01in /  0.25mm 3 W/m2
07:30 57.8 °F /  14.3 °C 56.7 °F /  13.7 °C 29.62in /  1002.9hPa Calm     96% 0.01in /  0.25mm 14 W/m2
08:04 58.3 °F /  14.6 °C 57.2 °F /  14 °C 29.62in /  1002.9hPa Calm     96% 0.01in /  0.25mm 25 W/m2
08:09 58.4 °F /  14.7 °C 57.3 °F /  14.1 °C 29.62in /  1002.9hPa Calm     96% 0.01in /  0.25mm 33 W/m2
08:14 58.6 °F /  14.8 °C 57.4 °F /  14.1 °C 29.62in /  1002.9hPa Calm     96% 0.01in /  0.25mm 33 W/m2
08:19 58.7 °F /  14.8 °C 57.6 °F /  14.2 °C 29.62in /  1002.9hPa Calm     96% 0.01in /  0.25mm 53 W/m2
08:24 59 °F /  15 °C 57.8 °F /  14.3 °C 29.62in /  1002.9hPa Calm     96% 0.01in /  0.25mm 60 W/m2
08:29 59.3 °F /  15.2 °C 58.1 °F /  14.5 °C 29.62in /  1002.9hPa SW 0.1mph /  0.2km/h 3mph /  4.8km/h 96% 0.01in /  0.25mm 84 W/m2
08:34 59.5 °F /  15.3 °C 58.4 °F /  14.7 °C 29.63in /  1003.3hPa Calm   3mph /  4.8km/h 96% 0.01in /  0.25mm 104 W/m2
08:39 59.8 °F /  15.4 °C 58.6 °F /  14.8 °C 29.64in /  1003.6hPa Calm     96% 0.00in /  0mm 109 W/m2
08:44 60 °F /  15.6 °C 58.9 °F /  14.9 °C 29.64in /  1003.6hPa Calm     96% 0.00in /  0mm 109 W/m2
08:49 60.2 °F /  15.7 °C 59.1 °F /  15.1 °C 29.63in /  1003.3hPa Calm     96% 0.00in /  0mm 90 W/m2
08:54 60.4 °F /  15.8 °C 59.2 °F /  15.1 °C 29.63in /  1003.3hPa Calm     96% 0.00in /  0mm 98 W/m2
08:59 60.5 °F /  15.8 °C 59.4 °F /  15.2 °C 29.63in /  1003.3hPa Calm     96% 0.00in /  0mm 239 W/m2
09:04 60.8 °F /  16 °C 59.6 °F /  15.3 °C 29.63in /  1003.3hPa WSW 0.3mph /  0.5km/h 5mph /  8km/h 96% 0.00in /  0mm 406 W/m2
09:09 61.4 °F /  16.3 °C 60.2 °F /  15.7 °C 29.63in /  1003.3hPa WSW 0.2mph /  0.3km/h 5mph /  8km/h 96% 0.00in /  0mm 425 W/m2
09:14 62 °F /  16.7 °C 60.9 °F /  16.1 °C 29.63in /  1003.3hPa West 0.1mph /  0.2km/h 5mph /  8km/h 96% 0.00in /  0mm 446 W/m2
09:19 62.6 °F /  17 °C 61.4 °F /  16.3 °C 29.63in /  1003.3hPa West 0.1mph /  0.2km/h 5mph /  8km/h 96% 0.00in /  0mm 466 W/m2
09:24 63.6 °F /  17.6 °C 62.4 °F /  16.9 °C 29.64in /  1003.6hPa Calm   5mph /  8km/h 96% 0.00in /  0mm 480 W/m2
09:29 64.6 °F /  18.1 °C 63.3 °F /  17.4 °C 29.64in /  1003.6hPa West 0.4mph /  0.6km/h 5mph /  8km/h 95.4% 0.00in /  0mm 499 W/m2
09:34 65.5 °F /  18.6 °C 63.4 °F /  17.4 °C 29.64in /  1003.6hPa Calm   5mph /  8km/h 93% 0.00in /  0mm 527 W/m2
09:39 66.4 °F /  19.1 °C 63.5 °F /  17.5 °C 29.64in /  1003.6hPa West 0.1mph /  0.2km/h 2mph /  3.2km/h 90.4% 0.00in /  0mm 577 W/m2
09:44 67.4 °F /  19.7 °C 63.8 °F /  17.7 °C 29.64in /  1003.6hPa West 0.1mph /  0.2km/h 4mph /  6.4km/h 88.3% 0.00in /  0mm 577 W/m2
09:49 68.2 °F /  20.1 °C 63.4 °F /  17.4 °C 29.65in /  1003.9hPa West 0.2mph /  0.3km/h 4mph /  6.4km/h 84.9% 0.00in /  0mm 585 W/m2
09:54 68.5 °F /  20.3 °C 62.7 °F /  17.1 °C 29.64in /  1003.6hPa Calm   4mph /  6.4km/h 81.7% 0.00in /  0mm 589 W/m2
09:59 68.8 °F /  20.4 °C 62.5 °F /  16.9 °C 29.64in /  1003.6hPa WSW 0.9mph /  1.4km/h 12mph /  19.3km/h 80.2% 0.00in /  0mm 582 W/m2
10:04 69.2 °F /  20.7 °C 62.4 °F /  16.9 °C 29.64in /  1003.6hPa WSW 0.2mph /  0.3km/h 12mph /  19.3km/h 78.9% 0.00in /  0mm 589 W/m2
10:09 69.6 °F /  20.9 °C 62.4 °F /  16.9 °C 29.64in /  1003.6hPa West 0.4mph /  0.6km/h 7mph /  11.3km/h 77.8% 0.00in /  0mm 598 W/m2
10:14 70.2 °F /  21.2 °C 62.9 °F /  17.2 °C 29.65in /  1003.9hPa WSW 0.4mph /  0.6km/h 7mph /  11.3km/h 77.7% 0.00in /  0mm 613 W/m2
10:19 70.8 °F /  21.6 °C 63.3 °F /  17.4 °C 29.65in /  1003.9hPa West 0.1mph /  0.2km/h 7mph /  11.3km/h 77.1% 0.00in /  0mm 636 W/m2
10:24 71.4 °F /  21.9 °C 63.3 °F /  17.4 °C 29.64in /  1003.6hPa West 0.5mph /  0.8km/h 7mph /  11.3km/h 75.7% 0.00in /  0mm 640 W/m2
10:29 71.8 °F /  22.1 °C 63.1 °F /  17.3 °C 29.64in /  1003.6hPa West 0.2mph /  0.3km/h 7mph /  11.3km/h 74.2% 0.00in /  0mm 640 W/m2
10:34 72.1 °F /  22.3 °C 63.1 °F /  17.3 °C 29.64in /  1003.6hPa Calm   7mph /  11.3km/h 73.1% 0.00in /  0mm 652 W/m2
10:39 72.3 °F /  22.4 °C 62.8 °F /  17.1 °C 29.64in /  1003.6hPa Calm   1mph /  1.6km/h 72% 0.00in /  0mm 677 W/m2
10:44 72.3 °F /  22.4 °C 62.4 °F /  16.9 °C 29.64in /  1003.6hPa Calm   2mph /  3.2km/h 71% 0.00in /  0mm 696 W/m2
10:49 72.6 °F /  22.6 °C 63 °F /  17.2 °C 29.64in /  1003.6hPa Calm   2mph /  3.2km/h 71.8% 0.00in /  0mm 714 W/m2
10:54 72.6 °F /  22.6 °C 62.4 °F /  16.9 °C 29.64in /  1003.6hPa WSW 0.1mph /  0.2km/h 3mph /  4.8km/h 70.4% 0.00in /  0mm 729 W/m2
10:59 72.9 °F /  22.7 °C 62.8 °F /  17.1 °C 29.64in /  1003.6hPa Calm   3mph /  4.8km/h 70.7% 0.00in /  0mm 744 W/m2
11:04 73.4 °F /  23 °C 63 °F /  17.2 °C 29.65in /  1003.9hPa WSW 0.1mph /  0.2km/h 4mph /  6.4km/h 69.9% 0.00in /  0mm 752 W/m2
11:09 73.6 °F /  23.1 °C 62.3 °F /  16.8 °C 29.64in /  1003.6hPa WSW 0.3mph /  0.5km/h 6mph /  9.7km/h 67.8% 0.00in /  0mm 737 W/m2
11:14 73.6 °F /  23.1 °C 62.8 °F /  17.1 °C 29.64in /  1003.6hPa Calm   6mph /  9.7km/h 69% 0.00in /  0mm 751 W/m2
11:19 73.7 °F /  23.2 °C 62.3 °F /  16.8 °C 29.64in /  1003.6hPa WSW 0.1mph /  0.2km/h 6mph /  9.7km/h 67.5% 0.00in /  0mm 751 W/m2
11:24 73.5 °F /  23.1 °C 61.7 °F /  16.5 °C 29.64in /  1003.6hPa WSW 0.1mph /  0.2km/h 6mph /  9.7km/h 66.6% 0.00in /  0mm 770 W/m2
11:29 73.4 °F /  23 °C 62.9 °F /  17.2 °C 29.64in /  1003.6hPa Calm   6mph /  9.7km/h 69.6% 0.00in /  0mm 770 W/m2
11:34 73.3 °F /  22.9 °C 61.7 °F /  16.5 °C 29.64in /  1003.6hPa WSW 0.3mph /  0.5km/h 6mph /  9.7km/h 66.9% 0.00in /  0mm 642 W/m2
11:39 73.2 °F /  22.9 °C 61.6 °F /  16.4 °C 29.64in /  1003.6hPa WSW 0.1mph /  0.2km/h 6mph /  9.7km/h 67% 0.00in /  0mm 617 W/m2
11:44 73 °F /  22.8 °C 61.6 °F /  16.4 °C 29.64in /  1003.6hPa West 0.3mph /  0.5km/h 6mph /  9.7km/h 67.4% 0.00in /  0mm 155 W/m2
11:49 72.8 °F /  22.7 °C 61.4 °F /  16.3 °C 29.64in /  1003.6hPa WSW 0.4mph /  0.6km/h 6mph /  9.7km/h 67.6% 0.00in /  0mm 188 W/m2
11:54 72.6 °F /  22.6 °C 61.9 °F /  16.6 °C 29.64in /  1003.6hPa WSW 0.2mph /  0.3km/h 6mph /  9.7km/h 69% 0.00in /  0mm 195 W/m2
11:59 72.7 °F /  22.6 °C 62 °F /  16.7 °C 29.64in /  1003.6hPa WSW 0.6mph /  1km/h 10mph /  16.1km/h 69.1% 0.00in /  0mm 213 W/m2
12:04 72.6 °F /  22.6 °C 61 °F /  16.1 °C 29.64in /  1003.6hPa Calm     67% 0.00in /  0mm 109 W/m2
12:09 72.6 °F /  22.6 °C 60.9 °F /  16.1 °C 29.64in /  1003.6hPa WSW 0.2mph /  0.3km/h 4mph /  6.4km/h 66.8% 0.00in /  0mm 109 W/m2
12:14 72.4 °F /  22.4 °C 60.9 °F /  16.1 °C 29.64in /  1003.6hPa WSW 0.7mph /  1.1km/h 7mph /  11.3km/h 67.1% 0.00in /  0mm 144 W/m2
12:19 72.3 °F /  22.4 °C 60.6 °F /  15.9 °C 29.64in /  1003.6hPa WSW 1.1mph /  1.8km/h 7mph /  11.3km/h 66.7% 0.00in /  0mm 396 W/m2
12:24 72.2 °F /  22.3 °C 60 °F /  15.6 °C 29.64in /  1003.6hPa SW 0.7mph /  1.1km/h 7mph /  11.3km/h 65.5% 0.00in /  0mm 396 W/m2
12:29 72.2 °F /  22.3 °C 60.2 °F /  15.7 °C 29.64in /  1003.6hPa WSW 1.1mph /  1.8km/h 7mph /  11.3km/h 66% 0.00in /  0mm 420 W/m2
12:34 72.2 °F /  22.3 °C 60 °F /  15.6 °C 29.64in /  1003.6hPa WSW 0.8mph /  1.3km/h 7mph /  11.3km/h 65.3% 0.00in /  0mm 420 W/m2
12:39 72.3 °F /  22.4 °C 59.9 °F /  15.5 °C 29.64in /  1003.6hPa Calm   5mph /  8km/h 65% 0.00in /  0mm 156 W/m2
12:44 72.4 °F /  22.4 °C 60.4 °F /  15.8 °C 29.64in /  1003.6hPa WSW 0.1mph /  0.2km/h 5mph /  8km/h 66% 0.00in /  0mm 214 W/m2
12:49 72.3 °F /  22.4 °C 60.3 °F /  15.7 °C 29.64in /  1003.6hPa SSE 0.1mph /  0.2km/h 5mph /  8km/h 66.2% 0.00in /  0mm 179 W/m2
12:54 72.1 °F /  22.3 °C 59.8 °F /  15.4 °C 29.64in /  1003.6hPa SW 0.7mph /  1.1km/h 5mph /  8km/h 65.2% 0.00in /  0mm 151 W/m2
12:59 72.2 °F /  22.3 °C 60.1 °F /  15.6 °C 29.64in /  1003.6hPa West 0.1mph /  0.2km/h 5mph /  8km/h 65.8% 0.00in /  0mm 292 W/m2
13:04 72.3 °F /  22.4 °C 60.8 °F /  16 °C 29.64in /  1003.6hPa West 0.2mph /  0.3km/h 5mph /  8km/h 67.1% 0.00in /  0mm 292 W/m2
13:09 72.4 °F /  22.4 °C 60.5 °F /  15.8 °C 29.64in /  1003.6hPa WSW 0.8mph /  1.3km/h 7mph /  11.3km/h 66.2% 0.00in /  0mm 244 W/m2
13:14 72.3 °F /  22.4 °C 60 °F /  15.6 °C 29.64in /  1003.6hPa WSW 0.2mph /  0.3km/h 7mph /  11.3km/h 65.3% 0.00in /  0mm 346 W/m2
13:19 72.4 °F /  22.4 °C 60.9 °F /  16.1 °C 29.64in /  1003.6hPa WSW 0.3mph /  0.5km/h 7mph /  11.3km/h 67.1% 0.00in /  0mm 320 W/m2
13:24 72.5 °F /  22.5 °C 59.9 °F /  15.5 °C 29.64in /  1003.6hPa WSW 0.2mph /  0.3km/h 7mph /  11.3km/h 64.6% 0.00in /  0mm 304 W/m2
13:29 72.5 °F /  22.5 °C 59.8 °F /  15.4 °C 29.64in /  1003.6hPa WSW 0.4mph /  0.6km/h 7mph /  11.3km/h 64.5% 0.00in /  0mm 241 W/m2
13:34 72.3 °F /  22.4 °C 60.1 °F /  15.6 °C 29.64in /  1003.6hPa WSW 0.4mph /  0.6km/h 7mph /  11.3km/h 65.4% 0.00in /  0mm 179 W/m2
13:39 72.1 °F /  22.3 °C 59.9 °F /  15.5 °C 29.63in /  1003.3hPa Calm   3mph /  4.8km/h 65.4% 0.00in /  0mm 309 W/m2
13:44 72.1 °F /  22.3 °C 60.3 °F /  15.7 °C 29.63in /  1003.3hPa SW 0.1mph /  0.2km/h 3mph /  4.8km/h 66.4% 0.00in /  0mm 309 W/m2
13:49 72.2 °F /  22.3 °C 60.6 °F /  15.9 °C 29.63in /  1003.3hPa SW 0.6mph /  1km/h 6mph /  9.7km/h 67% 0.00in /  0mm 120 W/m2
13:54 72.5 °F /  22.5 °C 60.8 °F /  16 °C 29.63in /  1003.3hPa WSW 0.8mph /  1.3km/h 9mph /  14.5km/h 66.6% 0.00in /  0mm 169 W/m2
13:59 72.8 °F /  22.7 °C 60.2 °F /  15.7 °C 29.63in /  1003.3hPa West 0.2mph /  0.3km/h 9mph /  14.5km/h 64.8% 0.00in /  0mm 149 W/m2
14:04 72.8 °F /  22.7 °C 60 °F /  15.6 °C 29.63in /  1003.3hPa West 0.1mph /  0.2km/h 9mph /  14.5km/h 64.2% 0.00in /  0mm 209 W/m2
14:09 72.8 °F /  22.7 °C 60.3 °F /  15.7 °C 29.63in /  1003.3hPa SSW 0.7mph /  1.1km/h 4mph /  6.4km/h 64.7% 0.00in /  0mm 190 W/m2
14:14 72.9 °F /  22.7 °C 59.5 °F /  15.3 °C 29.63in /  1003.3hPa SW 0.7mph /  1.1km/h 7mph /  11.3km/h 62.9% 0.00in /  0mm 171 W/m2
14:19 72.8 °F /  22.7 °C 59.9 °F /  15.5 °C 29.62in /  1002.9hPa WSW 0.4mph /  0.6km/h 7mph /  11.3km/h 63.8% 0.00in /  0mm 220 W/m2
14:24 72.7 °F /  22.6 °C 59.8 °F /  15.4 °C 29.63in /  1003.3hPa WSW 0.6mph /  1km/h 7mph /  11.3km/h 63.9% 0.00in /  0mm 165 W/m2
14:29 72.6 °F /  22.6 °C 59.6 °F /  15.3 °C 29.62in /  1002.9hPa SW 0.4mph /  0.6km/h 7mph /  11.3km/h 63.8% 0.00in /  0mm 153 W/m2
14:34 72.7 °F /  22.6 °C 59.7 °F /  15.4 °C 29.63in /  1003.3hPa WSW 1.1mph /  1.8km/h 11mph /  17.7km/h 63.7% 0.00in /  0mm 202 W/m2
14:39 73 °F /  22.8 °C 60 °F /  15.6 °C 29.62in /  1002.9hPa SW 0.1mph /  0.2km/h 11mph /  17.7km/h 63.7% 0.00in /  0mm 374 W/m2
14:44 73.3 °F /  22.9 °C 59.2 °F /  15.1 °C 29.62in /  1002.9hPa South 0.4mph /  0.6km/h 11mph /  17.7km/h 61.4% 0.00in /  0mm 374 W/m2
14:49 73.5 °F /  23.1 °C 59.1 °F /  15.1 °C 29.62in /  1002.9hPa SSW 0.2mph /  0.3km/h 11mph /  17.7km/h 60.6% 0.00in /  0mm 204 W/m2
14:54 73.7 °F /  23.2 °C 58.7 °F /  14.8 °C 29.62in /  1002.9hPa SSW 1.2mph /  1.9km/h 11mph /  17.7km/h 59.4% 0.00in /  0mm 60 W/m2
14:59 73.6 °F /  23.1 °C 58.1 °F /  14.5 °C 29.62in /  1002.9hPa SW 2.3mph /  3.7km/h 11mph /  17.7km/h 58.5% 0.00in /  0mm 76 W/m2
15:04 73.4 °F /  23 °C 58.2 °F /  14.6 °C 29.62in /  1002.9hPa West 0.4mph /  0.6km/h 11mph /  17.7km/h 59% 0.00in /  0mm 76 W/m2
15:09 73.3 °F /  22.9 °C 58.5 °F /  14.7 °C 29.62in /  1002.9hPa SW 1.2mph /  1.9km/h 7mph /  11.3km/h 59.8% 0.00in /  0mm 88 W/m2
15:14 73.3 °F /  22.9 °C 58.3 °F /  14.6 °C 29.62in /  1002.9hPa WSW 0.6mph /  1km/h 7mph /  11.3km/h 59.4% 0.00in /  0mm 88 W/m2
15:15 73.3 °F /  22.9 °C 58.1 °F /  14.5 °C 29.62in /  1002.9hPa SSW 1mph /  1.6km/h 7mph /  11.3km/h 59% 0.00in /  0mm 63 W/m2
15:30 73.5 °F /  23.1 °C 57.8 °F /  14.3 °C 29.61in /  1002.6hPa SW 1mph /  1.6km/h 10mph /  16.1km/h 58% 0.00in /  0mm 131 W/m2
16:04 72.8 °F /  22.7 °C 58.7 °F /  14.8 °C 29.61in /  1002.6hPa SSW 0.3mph /  0.5km/h 2mph /  3.2km/h 61.3% 0.00in /  0mm 70 W/m2
16:09 72.8 °F /  22.7 °C 58.7 °F /  14.8 °C 29.61in /  1002.6hPa SSW 0.2mph /  0.3km/h 2mph /  3.2km/h 61.1% 0.00in /  0mm 74 W/m2
16:14 72.9 °F /  22.7 °C 58.8 °F /  14.9 °C 29.61in /  1002.6hPa SSW 0.1mph /  0.2km/h 2mph /  3.2km/h 61.3% 0.00in /  0mm 69 W/m2
16:19 72.7 °F /  22.6 °C 58.9 °F /  14.9 °C 29.61in /  1002.6hPa SW 0.5mph /  0.8km/h 5mph /  8km/h 61.7% 0.00in /  0mm 120 W/m2
16:24 72.5 °F /  22.5 °C 58.2 °F /  14.6 °C 29.61in /  1002.6hPa ENE 0.2mph /  0.3km/h 5mph /  8km/h 60.8% 0.00in /  0mm 111 W/m2
16:29 72.3 °F /  22.4 °C 58.1 °F /  14.5 °C 29.61in /  1002.6hPa ESE 0.2mph /  0.3km/h 5mph /  8km/h 60.9% 0.00in /  0mm 116 W/m2
16:34 72.1 °F /  22.3 °C 57.6 °F /  14.2 °C 29.61in /  1002.6hPa South 0.4mph /  0.6km/h 5mph /  8km/h 60.3% 0.00in /  0mm 113 W/m2
16:39 71.9 °F /  22.2 °C 57.2 °F /  14 °C 29.61in /  1002.6hPa SSW 0.4mph /  0.6km/h 3mph /  4.8km/h 59.7% 0.00in /  0mm 91 W/m2
16:44 71.7 °F /  22.1 °C 57 °F /  13.9 °C 29.61in /  1002.6hPa SW 0.5mph /  0.8km/h 5mph /  8km/h 59.7% 0.00in /  0mm 79 W/m2
16:49 71.6 °F /  22 °C 57.3 °F /  14.1 °C 29.62in /  1002.9hPa SW 0.3mph /  0.5km/h 5mph /  8km/h 60.7% 0.00in /  0mm 100 W/m2
16:54 71.4 °F /  21.9 °C 57.3 °F /  14.1 °C 29.62in /  1002.9hPa SW 0.2mph /  0.3km/h 5mph /  8km/h 61% 0.00in /  0mm 111 W/m2
16:59 71.4 °F /  21.9 °C 57.7 °F /  14.3 °C 29.62in /  1002.9hPa SSW 0.5mph /  0.8km/h 9mph /  14.5km/h 61.8% 0.00in /  0mm 98 W/m2
17:04 71.5 °F /  21.9 °C 57.9 °F /  14.4 °C 29.63in /  1003.3hPa SSW 0.5mph /  0.8km/h 9mph /  14.5km/h 62.1% 0.00in /  0mm 49 W/m2
17:09 71.4 °F /  21.9 °C 58.4 °F /  14.7 °C 29.63in /  1003.3hPa SW 0.6mph /  1km/h 6mph /  9.7km/h 63.6% 0.00in /  0mm 40 W/m2
17:14 71.1 °F /  21.7 °C 58.6 °F /  14.8 °C 29.63in /  1003.3hPa SW 0.3mph /  0.5km/h 6mph /  9.7km/h 64.7% 0.00in /  0mm 56 W/m2
17:19 70.9 °F /  21.6 °C 59.1 °F /  15.1 °C 29.64in /  1003.6hPa SSW 0.8mph /  1.3km/h 8mph /  12.9km/h 66.4% 0.00in /  0mm 54 W/m2
17:24 70.6 °F /  21.4 °C 59.1 °F /  15.1 °C 29.64in /  1003.6hPa SW 0.6mph /  1km/h 8mph /  12.9km/h 66.9% 0.00in /  0mm 47 W/m2
17:29 70.5 °F /  21.4 °C 59.3 °F /  15.2 °C 29.64in /  1003.6hPa West 0.1mph /  0.2km/h 8mph /  12.9km/h 67.7% 0.00in /  0mm 39 W/m2
17:34 70.3 °F /  21.3 °C 59.5 °F /  15.3 °C 29.64in /  1003.6hPa SW 0.1mph /  0.2km/h 8mph /  12.9km/h 68.5% 0.00in /  0mm 25 W/m2
17:39 70.1 °F /  21.2 °C 59.5 °F /  15.3 °C 29.64in /  1003.6hPa SSW 1.4mph /  2.3km/h 6mph /  9.7km/h 69% 0.00in /  0mm 23 W/m2
17:44 69.9 °F /  21.1 °C 59.3 °F /  15.2 °C 29.64in /  1003.6hPa SSW 0.1mph /  0.2km/h 6mph /  9.7km/h 69% 0.00in /  0mm 14 W/m2
17:49 69.8 °F /  21 °C 59.3 °F /  15.2 °C 29.64in /  1003.6hPa South 0.1mph /  0.2km/h 6mph /  9.7km/h 69.2% 0.00in /  0mm 11 W/m2
17:54 69.7 °F /  20.9 °C 59.4 °F /  15.2 °C 29.64in /  1003.6hPa Calm   6mph /  9.7km/h 70% 0.00in /  0mm 12 W/m2
17:59 69.5 °F /  20.8 °C 59.6 °F /  15.3 °C 29.64in /  1003.6hPa WSW 0.2mph /  0.3km/h 6mph /  9.7km/h 70.8% 0.00in /  0mm 12 W/m2
18:04 69.4 °F /  20.8 °C 60.2 °F /  15.7 °C 29.64in /  1003.6hPa WSW 0.1mph /  0.2km/h 6mph /  9.7km/h 72.5% 0.00in /  0mm 9 W/m2
18:09 69.2 °F /  20.7 °C 60.6 °F /  15.9 °C 29.65in /  1003.9hPa WSW 0.2mph /  0.3km/h 4mph /  6.4km/h 74% 0.01in /  0.25mm 7 W/m2
18:14 69 °F /  20.6 °C 61.3 °F /  16.3 °C 29.65in /  1003.9hPa WNW 0.9mph /  1.4km/h 9mph /  14.5km/h 76.4% 0.01in /  0.25mm 14 W/m2
18:19 68.5 °F /  20.3 °C 61.6 °F /  16.4 °C 29.66in /  1004.3hPa West 1mph /  1.6km/h 9mph /  14.5km/h 78.6% 0.16in /  4.06mm 58 W/m2
18:24 67.8 °F /  19.9 °C 61.6 °F /  16.4 °C 29.66in /  1004.3hPa West 1.1mph /  1.8km/h 10mph /  16.1km/h 80.7% 0.20in /  5.08mm 76 W/m2
18:29 66.7 °F /  19.3 °C 61.1 °F /  16.2 °C 29.66in /  1004.3hPa WSW 0.4mph /  0.6km/h 10mph /  16.1km/h 82.2% 0.23in /  5.84mm 76 W/m2
18:34 65.8 °F /  18.8 °C 60.9 °F /  16.1 °C 29.66in /  1004.3hPa West 0.7mph /  1.1km/h 10mph /  16.1km/h 84.3% 0.23in /  5.84mm 40 W/m2
18:39 65 °F /  18.3 °C 60.7 °F /  15.9 °C 29.66in /  1004.3hPa Calm   9mph /  14.5km/h 85.7% 0.23in /  5.84mm 14 W/m2
18:44 64.5 °F /  18.1 °C 60.5 °F /  15.8 °C 29.67in /  1004.6hPa Calm   9mph /  14.5km/h 86.7% 0.23in /  5.84mm 5 W/m2
18:49 64.2 °F /  17.9 °C 60.5 °F /  15.8 °C 29.67in /  1004.6hPa Calm   9mph /  14.5km/h 87.8% 0.23in /  5.84mm 0 W/m2
18:54 63.9 °F /  17.7 °C 60.3 °F /  15.7 °C 29.67in /  1004.6hPa Calm   9mph /  14.5km/h 88.3% 0.23in /  5.84mm 0 W/m2
18:59 63.6 °F /  17.6 °C 60.1 °F /  15.6 °C 29.67in /  1004.6hPa Calm   9mph /  14.5km/h 88.5% 0.23in /  5.84mm 0 W/m2
19:04 63.3 °F /  17.4 °C 60 °F /  15.6 °C 29.67in /  1004.6hPa Calm   9mph /  14.5km/h 89% 0.23in /  5.84mm 0 W/m2
19:09 63 °F /  17.2 °C 59.9 °F /  15.5 °C 29.67in /  1004.6hPa Calm     89.5% 0.23in /  5.84mm 0 W/m2
19:14 62.8 °F /  17.1 °C 59.9 °F /  15.5 °C 29.67in /  1004.6hPa Calm   1mph /  1.6km/h 90% 0.23in /  5.84mm 0 W/m2
19:19 62.6 °F /  17 °C 59.8 °F /  15.4 °C 29.67in /  1004.6hPa Calm   1mph /  1.6km/h 90.4% 0.23in /  5.84mm 0 W/m2
19:24 62.5 °F /  16.9 °C 59.8 °F /  15.4 °C 29.68in /  1005hPa Calm   1mph /  1.6km/h 91% 0.23in /  5.84mm 0 W/m2
19:29 62.3 °F /  16.8 °C 59.6 °F /  15.3 °C 29.68in /  1005hPa Calm   1mph /  1.6km/h 91% 0.23in /  5.84mm 0 W/m2
19:34 62.2 °F /  16.8 °C 59.5 °F /  15.3 °C 29.68in /  1005hPa Calm   1mph /  1.6km/h 91% 0.23in /  5.84mm 0 W/m2
19:39 62.1 °F /  16.7 °C 59.6 °F /  15.3 °C 29.68in /  1005hPa Calm     91.6% 0.00in /  0mm 0 W/m2
19:44 62.1 °F /  16.7 °C 59.8 °F /  15.4 °C 29.69in /  1005.3hPa Calm     92% 0.00in /  0mm 0 W/m2
19:49 62.2 °F /  16.8 °C 60 °F /  15.6 °C 29.69in /  1005.3hPa Calm     92.5% 0.00in /  0mm 0 W/m2
19:54 62.3 °F /  16.8 °C 60.3 °F /  15.7 °C 29.69in /  1005.3hPa Calm     93% 0.00in /  0mm 0 W/m2
19:59 62.3 °F /  16.8 °C 60.3 °F /  15.7 °C 29.69in /  1005.3hPa Calm     93% 0.00in /  0mm 0 W/m2
20:04 62.1 °F /  16.7 °C 60.1 °F /  15.6 °C 29.69in /  1005.3hPa Calm     93% 0.00in /  0mm 0 W/m2
20:09 62.1 °F /  16.7 °C 60 °F /  15.6 °C 29.70in /  1005.6hPa Calm     93% 0.00in /  0mm 0 W/m2
20:14 62 °F /  16.7 °C 59.9 °F /  15.5 °C 29.70in /  1005.6hPa Calm     93% 0.00in /  0mm 0 W/m2
20:19 61.8 °F /  16.6 °C 59.8 °F /  15.4 °C 29.70in /  1005.6hPa Calm     93% 0.00in /  0mm 0 W/m2
20:24 61.8 °F /  16.6 °C 59.7 °F /  15.4 °C 29.70in /  1005.6hPa Calm     93% 0.00in /  0mm 0 W/m2
20:29 61.6 °F /  16.4 °C 59.6 °F /  15.3 °C 29.70in /  1005.6hPa Calm     93% 0.00in /  0mm 0 W/m2
20:34 61.5 °F /  16.4 °C 59.5 °F /  15.3 °C 29.71in /  1006hPa Calm     93% 0.00in /  0mm 0 W/m2
20:39 61.4 °F /  16.3 °C 59.3 °F /  15.2 °C 29.71in /  1006hPa Calm     93% 0.00in /  0mm 0 W/m2
20:44 61.3 °F /  16.3 °C 59.2 °F /  15.1 °C 29.71in /  1006hPa Calm     93% 0.00in /  0mm 0 W/m2
20:49 61.1 °F /  16.2 °C 59.1 °F /  15.1 °C 29.71in /  1006hPa Calm     93% 0.00in /  0mm 0 W/m2
20:54 60.9 °F /  16.1 °C 58.9 °F /  14.9 °C 29.71in /  1006hPa Calm     93% 0.00in /  0mm 0 W/m2
20:59 60.8 °F /  16 °C 58.7 °F /  14.8 °C 29.72in /  1006.3hPa Calm     93% 0.00in /  0mm 0 W/m2
21:04 60.6 °F /  15.9 °C 58.6 °F /  14.8 °C 29.72in /  1006.3hPa Calm     93% 0.00in /  0mm 0 W/m2
21:09 60.5 °F /  15.8 °C 58.5 °F /  14.7 °C 29.72in /  1006.3hPa Calm     93% 0.00in /  0mm 0 W/m2
21:14 60.4 °F /  15.8 °C 58.3 °F /  14.6 °C 29.72in /  1006.3hPa Calm     93% 0.00in /  0mm 0 W/m2
21:19 60.2 °F /  15.7 °C 58.2 °F /  14.6 °C 29.72in /  1006.3hPa Calm     93% 0.00in /  0mm 0 W/m2
21:24 60.1 °F /  15.6 °C 58 °F /  14.4 °C 29.72in /  1006.3hPa Calm     93% 0.00in /  0mm 0 W/m2
21:29 59.9 °F /  15.5 °C 58.1 °F /  14.5 °C 29.72in /  1006.3hPa Calm     93.7% 0.00in /  0mm 0 W/m2
21:34 59.8 °F /  15.4 °C 57.8 °F /  14.3 °C 29.73in /  1006.7hPa Calm     93% 0.00in /  0mm 0 W/m2
21:39 59.7 °F /  15.4 °C 57.9 °F /  14.4 °C 29.73in /  1006.7hPa Calm     94% 0.00in /  0mm 0 W/m2
21:44 59.6 °F /  15.3 °C 57.8 °F /  14.3 °C 29.73in /  1006.7hPa Calm     94% 0.00in /  0mm 0 W/m2
21:49 59.5 °F /  15.3 °C 57.8 °F /  14.3 °C 29.73in /  1006.7hPa Calm     94% 0.00in /  0mm 0 W/m2
21:54 59.5 °F /  15.3 °C 57.8 °F /  14.3 °C 29.73in /  1006.7hPa Calm     94% 0.00in /  0mm 0 W/m2
21:59 59.5 °F /  15.3 °C 57.8 °F /  14.3 °C 29.73in /  1006.7hPa Calm     94% 0.00in /  0mm 0 W/m2
22:04 59.5 °F /  15.3 °C 57.8 °F /  14.3 °C 29.73in /  1006.7hPa Calm     94% 0.00in /  0mm 0 W/m2
22:09 59.5 °F /  15.3 °C 57.8 °F /  14.3 °C 29.74in /  1007hPa Calm     94% 0.00in /  0mm 0 W/m2
22:14 59.4 °F /  15.2 °C 57.7 °F /  14.3 °C 29.74in /  1007hPa Calm     94% 0.00in /  0mm 0 W/m2
22:19 59.3 °F /  15.2 °C 57.6 °F /  14.2 °C 29.74in /  1007hPa Calm     94% 0.00in /  0mm 0 W/m2
22:24 59.3 °F /  15.2 °C 57.6 °F /  14.2 °C 29.74in /  1007hPa Calm     94% 0.00in /  0mm 0 W/m2
22:29 59.2 °F /  15.1 °C 57.5 °F /  14.2 °C 29.74in /  1007hPa Calm     94% 0.00in /  0mm 0 W/m2
22:34 59.2 °F /  15.1 °C 57.4 °F /  14.1 °C 29.74in /  1007hPa Calm     94% 0.00in /  0mm 0 W/m2
22:39 59.1 °F /  15.1 °C 57.3 °F /  14.1 °C 29.74in /  1007hPa Calm     94% 0.00in /  0mm 0 W/m2
22:44 59 °F /  15 °C 57.3 °F /  14.1 °C 29.74in /  1007hPa Calm     94% 0.00in /  0mm 0 W/m2
22:47 58.9 °F /  14.9 °C 57.2 °F /  14 °C 29.74in /  1007hPa Calm     94% 0.00in /  0mm 0 W/m2
23:00 58.9 °F /  14.9 °C 57.5 °F /  14.2 °C 29.74in /  1007hPa Calm     95% 0.00in /  0mm 0 W/m2
23:30 57.9 °F /  14.4 °C 56.2 °F /  13.4 °C 29.74in /  1007hPa Calm     94% 0.00in /  0mm 0 W/m2
Hartford County Weather
Compliments of Weather Underground - 4 mb